createdAt,value
2023-05-06T00:01:17.949Z,7.90
2023-05-06T00:04:20.798Z,7.60
2023-05-06T00:07:23.236Z,7.23
2023-05-06T00:10:26.165Z,7.78
2023-05-06T00:13:28.595Z,6.90
2023-05-06T00:16:31.064Z,7.18
2023-05-06T00:19:33.603Z,7.20
2023-05-06T00:22:36.229Z,7.10
2023-05-06T00:25:38.717Z,7.10
2023-05-06T00:28:41.402Z,7.35
2023-05-06T00:31:45.237Z,6.63
2023-05-06T00:34:48.315Z,6.47
2023-05-06T00:38:23.356Z,6.50
2023-05-06T00:41:26.282Z,6.57
2023-05-06T00:44:29.496Z,6.07
2023-05-06T00:47:32.007Z,6.40
2023-05-06T00:50:36.916Z,6.13
2023-05-06T00:53:40.615Z,6.03
2023-05-06T00:56:43.467Z,6.05
2023-05-06T00:59:46.174Z,6.22
2023-05-06T01:02:49.627Z,6.47
2023-05-06T01:06:00.086Z,5.90
2023-05-06T01:09:39.314Z,5.90
2023-05-06T01:12:56.700Z,6.10
2023-05-06T01:16:01.590Z,6.00
2023-05-06T01:19:08.957Z,5.97
2023-05-06T01:22:12.562Z,6.30
2023-05-06T01:25:20.255Z,6.30
2023-05-06T01:28:25.224Z,6.45
2023-05-06T01:31:32.254Z,6.10
2023-05-06T01:34:46.404Z,6.13
2023-05-06T01:38:11.761Z,6.00
2023-05-06T01:41:19.024Z,6.40
2023-05-06T01:44:23.507Z,6.53
2023-05-06T01:47:26.496Z,6.10
2023-05-06T01:50:30.841Z,5.93
2023-05-06T01:53:33.382Z,6.07
2023-05-06T01:56:36.485Z,6.33
2023-05-06T01:59:39.299Z,6.40
2023-05-06T02:02:41.982Z,6.00
2023-05-06T02:05:44.756Z,6.40
2023-05-06T02:08:47.824Z,6.53
2023-05-06T02:11:54.747Z,6.23
2023-05-06T02:14:57.761Z,6.25
2023-05-06T02:18:00.404Z,6.70
2023-05-06T02:21:03.343Z,6.47
2023-05-06T02:24:06.969Z,6.37
2023-05-06T02:27:09.384Z,6.30
2023-05-06T02:30:12.140Z,6.32
2023-05-06T02:33:14.628Z,6.20
2023-05-06T02:36:17.064Z,6.70
2023-05-06T02:39:20.342Z,6.90
2023-05-06T02:42:22.961Z,6.03
2023-05-06T02:45:25.385Z,6.10
2023-05-06T02:48:28.626Z,5.70
2023-05-06T02:51:31.266Z,6.32
2023-05-06T02:54:34.290Z,5.97
2023-05-06T02:57:36.815Z,6.23
2023-05-06T03:00:39.293Z,5.68
2023-05-06T03:03:42.068Z,6.18
2023-05-06T03:06:44.576Z,5.78
2023-05-06T03:09:47.298Z,6.77
2023-05-06T03:12:50.644Z,6.00
2023-05-06T03:15:54.296Z,6.18
2023-05-06T03:18:58.087Z,6.40
2023-05-06T03:22:00.921Z,6.72
2023-05-06T03:25:05.331Z,6.67
2023-05-06T03:28:09.480Z,7.20
2023-05-06T03:31:15.212Z,6.95
2023-05-06T03:34:18.178Z,7.00
2023-05-06T03:37:21.925Z,6.72
2023-05-06T03:40:29.133Z,7.17
2023-05-06T03:43:36.145Z,6.87
2023-05-06T03:46:41.665Z,7.43
2023-05-06T03:49:45.371Z,7.35
2023-05-06T03:52:49.111Z,6.93
2023-05-06T03:55:51.612Z,7.53
2023-05-06T03:58:54.629Z,6.57
2023-05-06T04:01:58.766Z,6.43
2023-05-06T04:05:01.669Z,6.25
2023-05-06T04:08:04.973Z,6.38
2023-05-06T04:11:08.240Z,6.27
2023-05-06T04:14:12.692Z,6.17
2023-05-06T04:17:15.231Z,6.63
2023-05-06T04:20:19.122Z,6.20
2023-05-06T04:23:22.363Z,6.53
2023-05-06T04:26:25.346Z,6.67
2023-05-06T04:29:27.937Z,6.43
2023-05-06T04:32:35.293Z,6.32
2023-05-06T04:35:40.071Z,6.40
2023-05-06T04:38:43.526Z,5.80
2023-05-06T04:41:47.068Z,6.10
2023-05-06T04:44:54.481Z,6.17
2023-05-06T04:48:01.809Z,5.90
2023-05-06T04:51:05.533Z,6.03
2023-05-06T04:54:09.642Z,6.25
2023-05-06T04:57:13.137Z,6.00
2023-05-06T05:00:19.649Z,6.43
2023-05-06T05:03:22.283Z,6.10
2023-05-06T05:06:25.039Z,6.35
2023-05-06T05:09:28.493Z,6.43
2023-05-06T05:12:31.261Z,6.27
2023-05-06T05:15:34.826Z,6.50
2023-05-06T05:18:37.409Z,6.50
2023-05-06T05:21:48.631Z,6.72
2023-05-06T05:24:51.653Z,6.55
2023-05-06T05:27:54.303Z,6.10
2023-05-06T05:31:03.132Z,6.47
2023-05-06T05:34:07.984Z,6.13
2023-05-06T05:37:16.074Z,6.10
2023-05-06T05:40:19.878Z,7.00
2023-05-06T05:43:27.047Z,6.47
2023-05-06T05:46:31.415Z,6.53
2023-05-06T05:49:34.195Z,7.10
2023-05-06T05:52:38.139Z,6.43
2023-05-06T05:55:41.401Z,6.78
2023-05-06T05:58:44.221Z,6.73
2023-05-06T06:01:46.902Z,6.83
2023-05-06T06:04:49.830Z,6.30
2023-05-06T06:07:52.574Z,7.35
2023-05-06T06:10:56.275Z,7.80
2023-05-06T06:14:02.980Z,6.77
2023-05-06T06:17:05.759Z,6.80
2023-05-06T06:20:09.126Z,6.28
2023-05-06T06:23:13.403Z,6.10
2023-05-06T06:26:16.252Z,5.75
2023-05-06T06:29:19.031Z,5.23
2023-05-06T06:32:21.573Z,5.80
2023-05-06T06:35:24.291Z,6.13
2023-05-06T06:38:26.773Z,5.57
2023-05-06T06:41:29.453Z,5.75
2023-05-06T06:44:33.282Z,5.57
2023-05-06T06:47:35.844Z,5.20
2023-05-06T06:50:38.431Z,5.20
2023-05-06T06:53:41.861Z,5.15
2023-05-06T06:56:44.466Z,5.60
2023-05-06T06:59:47.756Z,5.90
2023-05-06T07:02:50.376Z,5.80
2023-05-06T07:05:52.904Z,6.30
2023-05-06T07:08:55.427Z,5.47
2023-05-06T07:11:58.631Z,6.22
2023-05-06T07:15:01.301Z,5.37
2023-05-06T07:18:03.912Z,5.87
2023-05-06T07:21:06.580Z,5.95
2023-05-06T07:24:09.372Z,5.97
2023-05-06T07:27:11.897Z,5.70
2023-05-06T07:30:14.620Z,6.03
2023-05-06T07:33:17.373Z,5.50
2023-05-06T07:36:20.193Z,6.10
2023-05-06T07:39:22.639Z,5.75
2023-05-06T07:42:25.288Z,5.43
2023-05-06T07:45:27.831Z,5.33
2023-05-06T07:48:30.970Z,5.60
2023-05-06T07:51:33.659Z,5.72
2023-05-06T07:54:36.118Z,6.38
2023-05-06T07:57:38.975Z,5.97
2023-05-06T08:00:41.415Z,5.50
2023-05-06T08:03:44.240Z,5.40
2023-05-06T08:06:47.152Z,5.55
2023-05-06T08:09:49.657Z,5.60
2023-05-06T08:12:52.307Z,6.00
2023-05-06T08:15:55.511Z,5.53
2023-05-06T08:18:58.535Z,5.53
2023-05-06T08:22:01.136Z,6.05
2023-05-06T08:25:03.732Z,5.70
2023-05-06T08:28:06.481Z,5.70
2023-05-06T08:31:09.017Z,6.40
2023-05-06T08:34:11.667Z,6.30
2023-05-06T08:37:14.210Z,6.22
2023-05-06T08:40:21.910Z,6.10
2023-05-06T08:43:27.596Z,6.78
2023-05-06T08:46:31.544Z,6.27
2023-05-06T08:49:34.160Z,5.70
2023-05-06T08:52:38.462Z,6.55
2023-05-06T08:55:42.492Z,5.82
2023-05-06T08:58:48.374Z,6.18
2023-05-06T09:01:52.053Z,5.87
2023-05-06T09:04:55.695Z,6.50
2023-05-06T09:07:58.424Z,5.75
2023-05-06T09:11:01.134Z,6.10
2023-05-06T09:14:11.145Z,6.93
2023-05-06T09:17:26.674Z,7.00
2023-05-06T09:20:32.838Z,6.67
2023-05-06T09:23:35.590Z,6.10
2023-05-06T09:26:39.498Z,6.10
2023-05-06T09:30:00.618Z,6.07
2023-05-06T09:33:06.015Z,6.13
2023-05-06T09:36:10.813Z,6.13
2023-05-06T09:39:13.523Z,5.90
2023-05-06T09:42:16.706Z,5.72
2023-05-06T09:45:19.159Z,5.03
2023-05-06T09:48:22.261Z,5.63
2023-05-06T09:51:26.455Z,5.80
2023-05-06T09:54:29.600Z,5.13
2023-05-06T09:57:33.364Z,5.70
2023-05-06T10:00:36.658Z,5.10
2023-05-06T10:03:42.147Z,4.30
2023-05-06T10:06:49.013Z,6.33
2023-05-06T10:09:52.682Z,6.03
2023-05-06T10:12:56.412Z,5.68
2023-05-06T10:16:00.874Z,4.90
2023-05-06T10:19:06.701Z,5.43
2023-05-06T10:22:18.354Z,5.17
2023-05-06T10:25:35.308Z,6.22
2023-05-06T10:28:42.819Z,5.97
2023-05-06T10:31:55.442Z,5.10
2023-05-06T10:35:05.886Z,4.60
2023-05-06T10:38:15.270Z,4.00
2023-05-06T10:41:18.276Z,3.90
2023-05-06T10:44:56.615Z,3.88
2023-05-06T10:47:59.114Z,4.63
2023-05-06T10:51:13.908Z,4.67
2023-05-06T10:54:23.111Z,3.17
2023-05-06T10:57:27.404Z,3.60
2023-05-06T11:00:34.829Z,3.20
2023-05-06T11:03:37.703Z,5.10
2023-05-06T11:06:46.774Z,4.27
2023-05-06T11:10:05.176Z,4.20
2023-05-06T11:13:25.119Z,4.18
2023-05-06T11:16:47.386Z,4.00
2023-05-06T11:19:50.028Z,4.40
2023-05-06T11:22:53.131Z,4.33
2023-05-06T11:25:58.773Z,4.10
2023-05-06T11:29:04.113Z,4.30
2023-05-06T11:32:23.438Z,4.68
2023-05-06T11:35:34.156Z,4.15
2023-05-06T11:38:52.923Z,4.23
2023-05-06T11:42:07.062Z,4.10
2023-05-06T11:45:11.570Z,3.90
2023-05-06T11:48:18.373Z,3.80
2023-05-06T11:51:23.973Z,3.78
2023-05-06T11:54:27.157Z,3.70
2023-05-06T11:57:29.951Z,3.90
2023-05-06T12:00:32.504Z,4.05
2023-05-06T12:03:35.530Z,3.85
2023-05-06T12:06:39.140Z,4.00
2023-05-06T12:09:48.332Z,4.20
2023-05-06T12:12:51.167Z,3.70
2023-05-06T12:15:55.454Z,3.55
2023-05-06T12:18:58.237Z,3.83
2023-05-06T12:22:24.687Z,3.65
2023-05-06T12:25:27.235Z,4.07
2023-05-06T12:28:31.419Z,3.60
2023-05-06T12:31:34.532Z,3.95
2023-05-06T12:34:41.186Z,3.83
2023-05-06T12:37:43.648Z,3.58
2023-05-06T12:40:53.564Z,3.70
2023-05-06T12:43:56.369Z,3.20
2023-05-06T12:47:18.761Z,3.80
2023-05-06T12:50:41.847Z,3.70
2023-05-06T12:53:44.387Z,3.63
2023-05-06T12:56:46.895Z,3.67
2023-05-06T12:59:49.795Z,3.83
2023-05-06T13:02:52.340Z,3.53
2023-05-06T13:05:55.176Z,3.85
2023-05-06T13:08:58.093Z,3.95
2023-05-06T13:12:02.604Z,3.50
2023-05-06T13:15:05.555Z,3.40
2023-05-06T13:18:09.042Z,3.83
2023-05-06T13:21:13.152Z,3.88
2023-05-06T13:24:17.066Z,3.58
2023-05-06T13:27:19.536Z,3.93
2023-05-06T13:30:21.958Z,4.17
2023-05-06T13:33:24.525Z,4.10
2023-05-06T13:36:27.383Z,4.00
2023-05-06T13:39:30.911Z,4.10
2023-05-06T13:42:33.450Z,4.17
2023-05-06T13:45:35.926Z,4.23
2023-05-06T13:48:39.029Z,4.45
2023-05-06T13:51:41.476Z,4.05
2023-05-06T13:54:45.010Z,3.83
2023-05-06T13:57:47.519Z,3.30
2023-05-06T14:00:50.565Z,4.13
2023-05-06T14:03:53.013Z,3.47
2023-05-06T14:06:56.076Z,3.78
2023-05-06T14:09:58.874Z,3.78
2023-05-06T14:13:01.524Z,4.00
2023-05-06T14:16:04.994Z,4.30
2023-05-06T14:19:07.810Z,4.80
2023-05-06T14:22:10.914Z,5.10
2023-05-06T14:25:13.795Z,5.40
2023-05-06T14:28:16.539Z,5.97
2023-05-06T14:31:19.057Z,5.93
2023-05-06T14:34:21.562Z,6.25
2023-05-06T14:37:24.076Z,6.30
2023-05-06T14:40:26.752Z,5.63
2023-05-06T14:43:29.221Z,5.40
2023-05-06T14:46:31.741Z,6.07
2023-05-06T14:49:34.297Z,5.95
2023-05-06T14:52:40.579Z,5.53
2023-05-06T14:55:43.054Z,6.00
2023-05-06T14:58:46.168Z,5.90
2023-05-06T15:01:48.746Z,5.50
2023-05-06T15:04:52.717Z,6.13
2023-05-06T15:07:55.189Z,5.63
2023-05-06T15:10:57.658Z,5.50
2023-05-06T15:14:00.122Z,5.30
2023-05-06T15:17:02.776Z,5.20
2023-05-06T15:20:07.058Z,5.30
2023-05-06T15:23:09.584Z,4.93
2023-05-06T15:26:12.139Z,5.30
2023-05-06T15:29:14.990Z,5.23
2023-05-06T15:32:17.604Z,5.27
2023-05-06T15:35:20.125Z,5.68
2023-05-06T15:38:22.618Z,4.47
2023-05-06T15:41:32.235Z,4.25
2023-05-06T15:44:34.809Z,4.23
2023-05-06T15:47:37.289Z,4.17
2023-05-06T15:50:39.970Z,4.55
2023-05-06T15:53:43.179Z,4.63
2023-05-06T15:56:46.146Z,4.95
2023-05-06T15:59:48.619Z,4.97
2023-05-06T16:02:51.193Z,4.40
2023-05-06T16:05:56.661Z,4.70
2023-05-06T16:09:00.884Z,4.50
2023-05-06T16:12:04.118Z,4.82
2023-05-06T16:15:08.069Z,4.87
2023-05-06T16:18:11.246Z,4.80
2023-05-06T16:21:13.831Z,4.68
2023-05-06T16:24:16.398Z,5.43
2023-05-06T16:27:18.882Z,5.82
2023-05-06T16:30:21.889Z,6.43
2023-05-06T16:33:24.772Z,6.00
2023-05-06T16:36:28.547Z,5.93
2023-05-06T16:39:30.994Z,6.25
2023-05-06T16:42:33.563Z,6.32
2023-05-06T16:45:36.353Z,5.47
2023-05-06T16:48:39.407Z,6.57
2023-05-06T16:51:41.901Z,6.80
2023-05-06T16:54:44.485Z,6.40
2023-05-06T16:57:47.052Z,6.25
2023-05-06T17:00:52.657Z,6.50
2023-05-06T17:03:55.790Z,6.77
2023-05-06T17:06:58.551Z,6.63
2023-05-06T17:10:01.381Z,6.40
2023-05-06T17:13:05.205Z,7.25
2023-05-06T17:16:07.889Z,7.30
2023-05-06T17:19:11.884Z,6.80
2023-05-06T17:22:14.997Z,6.03
2023-05-06T17:25:17.537Z,5.45
2023-05-06T17:28:20.608Z,5.72
2023-05-06T17:31:23.421Z,5.90
2023-05-06T17:34:26.094Z,5.70
2023-05-06T17:37:28.644Z,5.50
2023-05-06T17:40:31.238Z,5.93
2023-05-06T17:43:34.231Z,6.30
2023-05-06T17:46:37.121Z,5.60
2023-05-06T17:49:39.731Z,6.27
2023-05-06T17:52:42.540Z,6.13
2023-05-06T17:55:44.967Z,6.72
2023-05-06T17:58:47.912Z,7.68
2023-05-06T18:01:50.436Z,7.80
2023-05-06T18:04:53.524Z,7.70
2023-05-06T18:07:56.034Z,7.95
2023-05-06T18:10:59.099Z,7.50
2023-05-06T18:14:01.786Z,8.52
2023-05-06T18:17:04.152Z,8.17
2023-05-06T18:20:08.035Z,8.43
2023-05-06T18:23:10.759Z,8.20
2023-05-06T18:26:18.745Z,8.57
2023-05-06T18:29:27.836Z,9.52
2023-05-06T18:32:31.706Z,10.50
2023-05-06T18:35:34.184Z,9.40
2023-05-06T18:38:36.638Z,7.60
2023-05-06T18:41:39.090Z,7.53
2023-05-06T18:44:44.848Z,7.45
2023-05-06T18:47:47.350Z,7.43
2023-05-06T18:50:50.992Z,7.40
2023-05-06T18:53:53.842Z,7.43
2023-05-06T18:56:57.779Z,7.78
2023-05-06T19:00:00.371Z,8.68
2023-05-06T19:03:02.947Z,7.97
2023-05-06T19:06:10.637Z,7.70
2023-05-06T19:09:13.534Z,7.57
2023-05-06T19:12:16.092Z,7.85
2023-05-06T19:15:19.248Z,7.95
2023-05-06T19:18:21.819Z,7.50
2023-05-06T19:21:24.622Z,8.07
2023-05-06T19:24:27.308Z,7.90
2023-05-06T19:27:29.998Z,7.85
2023-05-06T19:30:34.544Z,7.88
2023-05-06T19:33:38.307Z,8.93
2023-05-06T19:36:41.019Z,8.60
2023-05-06T19:39:43.603Z,9.15
2023-05-06T19:42:46.885Z,9.30
2023-05-06T19:45:49.435Z,8.90
2023-05-06T19:48:51.863Z,9.57
2023-05-06T19:51:54.325Z,10.00
2023-05-06T19:54:57.590Z,10.32
2023-05-06T19:58:00.051Z,9.73
2023-05-06T20:01:02.683Z,10.23
2023-05-06T20:04:05.374Z,9.87
2023-05-06T20:07:07.952Z,10.67
2023-05-06T20:10:13.579Z,13.13
2023-05-06T20:13:17.796Z,12.00
2023-05-06T20:16:20.346Z,11.32
2023-05-06T20:19:26.275Z,10.77
2023-05-06T20:22:31.357Z,11.07
2023-05-06T20:25:36.910Z,11.65
2023-05-06T20:28:39.364Z,11.10
2023-05-06T20:31:42.190Z,11.38
2023-05-06T20:34:44.877Z,11.77
2023-05-06T20:37:47.317Z,11.77
2023-05-06T20:40:50.033Z,11.77
2023-05-06T20:43:57.202Z,11.70
2023-05-06T20:46:59.789Z,11.05
2023-05-06T20:50:02.399Z,10.60
2023-05-06T20:53:05.234Z,10.87
2023-05-06T20:56:17.650Z,11.20
2023-05-06T20:59:20.363Z,11.45
2023-05-06T21:02:23.123Z,10.98
2023-05-06T21:05:26.042Z,10.90
2023-05-06T21:08:28.635Z,10.77
2023-05-06T21:11:31.329Z,11.40
2023-05-06T21:14:34.423Z,11.60
2023-05-06T21:17:36.992Z,11.15
2023-05-06T21:20:39.541Z,11.53
2023-05-06T21:23:42.029Z,11.67
2023-05-06T21:26:44.558Z,11.23
2023-05-06T21:29:47.045Z,11.57
2023-05-06T21:32:49.769Z,12.32
2023-05-06T21:35:52.290Z,12.67
2023-05-06T21:39:08.314Z,13.43
2023-05-06T21:42:10.916Z,13.20
2023-05-06T21:45:13.916Z,12.88
2023-05-06T21:48:16.758Z,13.40
2023-05-06T21:51:19.352Z,13.60
2023-05-06T21:54:21.904Z,13.67
2023-05-06T21:57:24.381Z,14.63
2023-05-06T22:00:28.207Z,14.35
2023-05-06T22:03:31.039Z,14.85
2023-05-06T22:06:33.998Z,14.13
2023-05-06T22:09:37.006Z,14.03
2023-05-06T22:12:39.569Z,14.00
2023-05-06T22:15:42.358Z,13.88
2023-05-06T22:18:44.895Z,13.55
2023-05-06T22:21:47.452Z,14.07
2023-05-06T22:24:49.952Z,13.80
2023-05-06T22:27:52.489Z,13.82
2023-05-06T22:30:55.279Z,13.48
2023-05-06T22:33:58.060Z,12.98
2023-05-06T22:37:01.172Z,13.30
2023-05-06T22:40:04.288Z,13.57
2023-05-06T22:43:06.820Z,13.85
2023-05-06T22:46:09.594Z,13.05
2023-05-06T22:49:12.159Z,13.98
2023-05-06T22:52:15.591Z,13.90
2023-05-06T22:55:18.341Z,13.63
2023-05-06T22:58:21.028Z,13.48
2023-05-06T23:01:25.255Z,13.45
2023-05-06T23:04:28.008Z,13.75
2023-05-06T23:07:31.183Z,13.93
2023-05-06T23:10:33.695Z,13.60
2023-05-06T23:13:36.597Z,14.15
2023-05-06T23:16:39.583Z,13.35
2023-05-06T23:19:43.604Z,13.02
2023-05-06T23:22:46.747Z,13.30
2023-05-06T23:25:49.163Z,13.33
2023-05-06T23:28:52.324Z,13.57
2023-05-06T23:31:54.811Z,13.75
2023-05-06T23:34:57.781Z,13.68
2023-05-06T23:38:00.192Z,15.17
2023-05-06T23:41:02.725Z,15.23
2023-05-06T23:44:06.429Z,14.23
2023-05-06T23:47:09.420Z,15.35
2023-05-06T23:50:12.272Z,14.98
2023-05-06T23:53:15.017Z,14.37
2023-05-06T23:56:17.417Z,15.17
2023-05-06T23:59:19.799Z,15.02
